createdAt,value
2023-05-15T00:01:12.631Z,15.51
2023-05-15T00:04:14.680Z,15.65
2023-05-15T00:07:16.634Z,15.42
2023-05-15T00:10:18.499Z,15.24
2023-05-15T00:13:20.449Z,15.78
2023-05-15T00:16:22.368Z,15.77
2023-05-15T00:19:24.435Z,16.12
2023-05-15T00:22:26.422Z,16.01
2023-05-15T00:25:28.515Z,16.47
2023-05-15T00:28:30.656Z,16.45
2023-05-15T00:31:33.605Z,16.35
2023-05-15T00:34:38.078Z,16.63
2023-05-15T00:37:40.253Z,16.53
2023-05-15T00:40:42.708Z,15.34
2023-05-15T00:43:44.545Z,15.50
2023-05-15T00:46:46.828Z,15.63
2023-05-15T00:49:49.377Z,15.41
2023-05-15T00:52:51.309Z,15.48
2023-05-15T00:55:54.913Z,15.54
2023-05-15T00:58:56.806Z,15.89
2023-05-15T01:01:58.673Z,15.72
2023-05-15T01:05:00.879Z,16.10
2023-05-15T01:08:18.154Z,15.42
2023-05-15T01:11:20.070Z,15.61
2023-05-15T01:14:21.917Z,15.48
2023-05-15T01:17:23.787Z,15.13
2023-05-15T01:20:25.837Z,15.18
2023-05-15T01:23:33.876Z,15.86
2023-05-15T01:26:41.760Z,16.18
2023-05-15T01:29:56.613Z,15.64
2023-05-15T01:33:17.483Z,15.18
2023-05-15T01:36:22.028Z,15.05
2023-05-15T01:39:26.179Z,15.21
2023-05-15T01:42:30.831Z,15.11
2023-05-15T01:45:32.809Z,16.10
2023-05-15T01:48:36.346Z,15.51
2023-05-15T01:51:38.150Z,15.41
2023-05-15T01:54:40.281Z,14.85
2023-05-15T01:57:42.386Z,15.22
2023-05-15T02:00:44.384Z,15.73
2023-05-15T02:03:46.744Z,15.30
2023-05-15T02:06:50.358Z,15.08
2023-05-15T02:09:53.159Z,15.20
2023-05-15T02:12:55.071Z,15.33
2023-05-15T02:15:57.136Z,15.84
2023-05-15T02:18:59.018Z,15.25
2023-05-15T02:22:00.974Z,15.51
2023-05-15T02:25:02.955Z,16.09
2023-05-15T02:28:04.895Z,16.46
2023-05-15T02:31:08.850Z,14.92
2023-05-15T02:34:31.024Z,15.91
2023-05-15T02:37:34.237Z,16.22
2023-05-15T02:40:36.511Z,16.24
2023-05-15T02:43:38.468Z,15.95
2023-05-15T02:46:41.526Z,15.70
2023-05-15T02:49:43.383Z,15.03
2023-05-15T02:52:45.371Z,14.79
2023-05-15T02:55:47.260Z,15.12
2023-05-15T02:58:49.731Z,15.52
2023-05-15T03:01:51.626Z,15.22
2023-05-15T03:04:54.403Z,15.00
2023-05-15T03:07:57.235Z,15.20
2023-05-15T03:10:59.346Z,15.70
2023-05-15T03:14:01.207Z,15.91
2023-05-15T03:17:03.590Z,15.49
2023-05-15T03:20:05.938Z,15.67
2023-05-15T03:23:07.759Z,16.14
2023-05-15T03:26:09.631Z,15.94
2023-05-15T03:29:11.531Z,15.89
2023-05-15T03:32:13.486Z,15.89
2023-05-15T03:35:15.378Z,16.06
2023-05-15T03:38:19.405Z,16.77
2023-05-15T03:41:21.520Z,16.56
2023-05-15T03:44:23.412Z,15.35
2023-05-15T03:47:25.476Z,16.30
2023-05-15T03:50:27.450Z,15.96
2023-05-15T03:53:29.321Z,15.22
2023-05-15T03:56:31.866Z,15.84
2023-05-15T03:59:33.858Z,15.98
2023-05-15T04:02:36.079Z,16.65
2023-05-15T04:05:37.997Z,15.97
2023-05-15T04:08:40.993Z,15.47
2023-05-15T04:11:44.055Z,15.42
2023-05-15T04:14:45.855Z,15.90
2023-05-15T04:17:48.327Z,16.30
2023-05-15T04:20:50.320Z,15.56
2023-05-15T04:23:52.254Z,15.84
2023-05-15T04:26:54.238Z,15.02
2023-05-15T04:30:01.660Z,15.21
2023-05-15T04:33:03.726Z,15.40
2023-05-15T04:36:09.835Z,15.23
2023-05-15T04:39:12.638Z,15.56
2023-05-15T04:42:14.471Z,15.80
2023-05-15T04:45:16.450Z,16.32
2023-05-15T04:48:19.283Z,15.96
2023-05-15T04:51:21.174Z,16.19
2023-05-15T04:54:23.130Z,16.52
2023-05-15T04:57:26.033Z,17.07
2023-05-15T05:00:28.444Z,16.52
2023-05-15T05:03:30.436Z,16.06
2023-05-15T05:06:32.296Z,16.04
2023-05-15T05:09:34.630Z,15.35
2023-05-15T05:12:36.655Z,15.46
2023-05-15T05:15:38.576Z,15.37
2023-05-15T05:18:40.936Z,15.68
2023-05-15T05:21:42.813Z,15.49
2023-05-15T05:24:44.734Z,15.41
2023-05-15T05:27:46.601Z,15.61
2023-05-15T05:30:48.668Z,15.38
2023-05-15T05:33:52.814Z,16.15
2023-05-15T05:36:54.843Z,15.54
2023-05-15T05:39:56.978Z,15.68
2023-05-15T05:43:00.333Z,15.95
2023-05-15T05:46:02.493Z,15.75
2023-05-15T05:49:04.486Z,16.67
2023-05-15T05:52:09.412Z,16.75
2023-05-15T05:55:11.594Z,15.79
2023-05-15T05:58:18.362Z,16.52
2023-05-15T06:01:27.013Z,16.17
2023-05-15T06:04:29.614Z,15.98
2023-05-15T06:07:31.702Z,16.61
2023-05-15T06:10:33.725Z,17.32
2023-05-15T06:13:36.057Z,18.11
2023-05-15T06:16:38.038Z,16.88
2023-05-15T06:19:40.372Z,18.11
2023-05-15T06:22:42.576Z,17.84
2023-05-15T06:25:44.773Z,16.75
2023-05-15T06:28:46.708Z,17.05
2023-05-15T06:31:48.667Z,17.51
2023-05-15T06:34:50.836Z,17.72
2023-05-15T06:37:56.596Z,16.90
2023-05-15T06:41:00.520Z,18.31
2023-05-15T06:44:02.449Z,17.60
2023-05-15T06:47:06.010Z,17.52
2023-05-15T06:50:08.206Z,17.81
2023-05-15T06:53:11.333Z,18.88
2023-05-15T06:56:14.301Z,19.30
2023-05-15T06:59:16.193Z,19.23
2023-05-15T07:02:18.157Z,18.03
2023-05-15T07:05:21.866Z,17.94
2023-05-15T07:08:23.999Z,17.75
2023-05-15T07:11:26.164Z,17.82
2023-05-15T07:14:28.846Z,19.07
2023-05-15T07:17:31.884Z,19.25
2023-05-15T07:20:36.378Z,18.19
2023-05-15T07:23:38.839Z,19.40
2023-05-15T07:26:50.289Z,20.23
2023-05-15T07:29:59.277Z,19.84
2023-05-15T07:33:01.491Z,19.79
2023-05-15T07:36:04.208Z,19.34
2023-05-15T07:39:06.163Z,18.29
2023-05-15T07:42:13.961Z,18.50
2023-05-15T07:45:16.872Z,19.07
2023-05-15T07:48:21.371Z,19.35
2023-05-15T07:51:26.281Z,19.26
2023-05-15T07:54:28.341Z,20.04
2023-05-15T07:57:31.920Z,18.69
2023-05-15T08:00:34.009Z,19.42
2023-05-15T08:03:36.503Z,19.56
2023-05-15T08:06:44.414Z,19.30
2023-05-15T08:09:46.477Z,20.77
2023-05-15T08:12:51.923Z,20.96
2023-05-15T08:15:54.038Z,22.17
2023-05-15T08:19:01.503Z,22.67
2023-05-15T08:22:03.670Z,22.26
2023-05-15T08:25:07.129Z,21.40
2023-05-15T08:28:09.007Z,22.19
2023-05-15T08:31:11.294Z,23.05
2023-05-15T08:34:13.247Z,22.95
2023-05-15T08:37:15.137Z,21.13
2023-05-15T08:40:25.625Z,20.67
2023-05-15T08:43:37.243Z,21.44
2023-05-15T08:46:39.247Z,20.60
2023-05-15T08:50:01.023Z,21.65
2023-05-15T08:53:02.904Z,19.99
2023-05-15T08:56:04.944Z,20.31
2023-05-15T08:59:06.982Z,20.81
2023-05-15T09:02:09.029Z,21.14
2023-05-15T09:05:11.479Z,19.97
2023-05-15T09:08:13.438Z,21.22
2023-05-15T09:11:16.069Z,20.82
2023-05-15T09:14:18.589Z,20.95
2023-05-15T09:17:21.141Z,20.48
2023-05-15T09:20:33.594Z,19.65
2023-05-15T09:23:35.602Z,20.44
2023-05-15T09:26:41.294Z,21.32
2023-05-15T09:29:43.142Z,19.64
2023-05-15T09:32:45.222Z,20.35
2023-05-15T09:35:47.512Z,21.62
2023-05-15T09:38:49.868Z,21.61
2023-05-15T09:41:52.163Z,22.39
2023-05-15T09:44:54.036Z,23.04
2023-05-15T09:47:57.786Z,21.59
2023-05-15T09:50:59.839Z,22.75
2023-05-15T09:54:01.919Z,23.58
2023-05-15T09:57:10.508Z,23.49
2023-05-15T10:00:14.997Z,22.79
2023-05-15T10:03:19.092Z,23.77
2023-05-15T10:06:21.319Z,24.27
2023-05-15T10:09:23.299Z,23.30
2023-05-15T10:12:25.500Z,22.36
2023-05-15T10:15:30.392Z,22.69
2023-05-15T10:18:33.146Z,22.46
2023-05-15T10:21:36.422Z,22.32
2023-05-15T10:24:40.860Z,22.77
2023-05-15T10:27:43.283Z,21.35
2023-05-15T10:30:45.244Z,22.36
2023-05-15T10:33:55.927Z,22.27
2023-05-15T10:37:00.956Z,22.02
2023-05-15T10:40:02.984Z,20.36
2023-05-15T10:43:05.678Z,20.10
2023-05-15T10:46:07.604Z,21.27
2023-05-15T10:49:12.814Z,21.31
2023-05-15T10:52:18.017Z,20.86
2023-05-15T10:55:20.807Z,21.32
2023-05-15T10:58:23.330Z,22.84
2023-05-15T11:01:29.234Z,22.04
2023-05-15T11:04:31.732Z,22.99
2023-05-15T11:07:33.961Z,22.65
2023-05-15T11:10:39.469Z,23.40
2023-05-15T11:14:00.695Z,22.64
2023-05-15T11:17:06.938Z,22.88
2023-05-15T11:20:09.438Z,23.59
2023-05-15T11:23:13.682Z,24.15
2023-05-15T11:26:17.814Z,24.83
2023-05-15T11:29:19.800Z,25.61
2023-05-15T11:32:40.745Z,23.35
2023-05-15T11:35:43.316Z,23.65
2023-05-15T11:38:45.403Z,24.81
2023-05-15T11:41:49.501Z,24.32
2023-05-15T11:44:51.469Z,22.40
2023-05-15T11:47:53.470Z,23.10
2023-05-15T11:50:55.477Z,22.77
2023-05-15T11:53:57.689Z,22.74
2023-05-15T11:56:59.769Z,24.23
2023-05-15T12:00:01.840Z,23.35
2023-05-15T12:03:04.152Z,22.95
2023-05-15T12:06:09.015Z,23.43
2023-05-15T12:09:15.044Z,22.60
2023-05-15T12:12:17.632Z,22.11
2023-05-15T12:15:20.062Z,22.85
2023-05-15T12:18:22.407Z,22.86
2023-05-15T12:21:28.682Z,22.67
2023-05-15T12:24:30.814Z,22.59
2023-05-15T12:27:32.780Z,21.96
2023-05-15T12:30:37.418Z,23.18
2023-05-15T12:33:39.309Z,21.84
2023-05-15T12:36:41.670Z,23.37
2023-05-15T12:39:50.865Z,22.17
2023-05-15T12:42:56.569Z,23.34
2023-05-15T12:45:58.664Z,23.70
2023-05-15T12:49:01.106Z,22.39
2023-05-15T12:52:10.028Z,22.59
2023-05-15T12:55:15.781Z,21.82
2023-05-15T12:58:19.380Z,21.20
2023-05-15T13:01:21.982Z,21.20
2023-05-15T13:04:24.268Z,20.93
2023-05-15T13:07:26.560Z,21.79
2023-05-15T13:10:29.079Z,21.26
2023-05-15T13:14:00.724Z,21.44
2023-05-15T13:17:03.377Z,20.99
2023-05-15T13:20:06.087Z,21.40
2023-05-15T13:23:08.381Z,21.98
2023-05-15T13:26:10.464Z,21.66
2023-05-15T13:29:12.733Z,21.61
2023-05-15T13:32:14.851Z,21.88
2023-05-15T13:35:17.436Z,21.56
2023-05-15T13:38:19.278Z,21.60
2023-05-15T13:41:21.273Z,21.57
2023-05-15T13:44:23.185Z,21.31
2023-05-15T13:47:29.300Z,22.31
2023-05-15T13:50:31.278Z,21.21
2023-05-15T13:53:33.258Z,20.55
2023-05-15T13:56:35.460Z,20.24
2023-05-15T13:59:37.543Z,20.68
2023-05-15T14:02:40.108Z,21.07
2023-05-15T14:05:42.477Z,20.84
2023-05-15T14:08:46.637Z,21.66
2023-05-15T14:12:40.802Z,20.54
2023-05-15T14:15:43.317Z,20.98
2023-05-15T14:18:45.880Z,20.66
2023-05-15T14:21:48.105Z,19.88
2023-05-15T14:24:50.725Z,19.38
2023-05-15T14:27:53.147Z,19.93
2023-05-15T14:30:55.519Z,19.48
2023-05-15T14:33:59.230Z,20.61
2023-05-15T14:37:01.284Z,20.72
2023-05-15T14:40:05.231Z,20.75
2023-05-15T14:43:07.706Z,20.43
2023-05-15T14:46:11.403Z,21.21
2023-05-15T14:49:20.234Z,20.30
2023-05-15T14:52:24.662Z,20.58
2023-05-15T14:55:27.162Z,21.44
2023-05-15T14:58:29.317Z,21.69
2023-05-15T15:01:31.448Z,21.60
2023-05-15T15:04:36.217Z,21.40
2023-05-15T15:07:58.516Z,20.93
2023-05-15T15:11:01.976Z,20.87
2023-05-15T15:14:04.082Z,20.71
2023-05-15T15:17:08.184Z,20.33
2023-05-15T15:20:11.676Z,19.88
2023-05-15T15:23:13.738Z,20.76
2023-05-15T15:26:18.652Z,20.40
2023-05-15T15:29:20.628Z,20.52
2023-05-15T15:32:22.901Z,20.35
2023-05-15T15:35:25.837Z,20.77
2023-05-15T15:38:28.695Z,20.94
2023-05-15T15:41:33.103Z,20.69
2023-05-15T15:44:35.127Z,21.32
2023-05-15T15:47:37.225Z,20.22
2023-05-15T15:50:41.356Z,20.06
2023-05-15T15:53:43.368Z,21.06
2023-05-15T15:56:45.835Z,20.74
2023-05-15T15:59:48.197Z,21.86
2023-05-15T16:02:50.939Z,21.05
2023-05-15T16:05:52.967Z,21.78
2023-05-15T16:08:55.102Z,22.24
2023-05-15T16:11:57.720Z,21.81
2023-05-15T16:15:06.878Z,21.58
2023-05-15T16:18:15.802Z,21.73
2023-05-15T16:21:17.752Z,21.62
2023-05-15T16:24:19.684Z,21.39
2023-05-15T16:27:21.819Z,20.80
2023-05-15T16:30:33.446Z,21.72
2023-05-15T16:33:46.552Z,20.78
2023-05-15T16:36:49.939Z,20.45
2023-05-15T16:39:51.995Z,20.57
2023-05-15T16:42:54.256Z,20.39
2023-05-15T16:45:56.512Z,21.10
2023-05-15T16:48:58.536Z,21.87
2023-05-15T16:52:00.569Z,21.16
2023-05-15T16:55:03.506Z,21.33
2023-05-15T16:58:05.729Z,20.55
2023-05-15T17:01:09.944Z,20.70
2023-05-15T17:04:12.105Z,19.95
2023-05-15T17:07:14.233Z,19.70
2023-05-15T17:10:16.239Z,19.65
2023-05-15T17:13:18.237Z,20.31
2023-05-15T17:16:20.238Z,19.71
2023-05-15T17:19:22.280Z,20.79
2023-05-15T17:22:24.358Z,20.50
2023-05-15T17:25:26.665Z,20.70
2023-05-15T17:28:28.777Z,20.36
2023-05-15T17:31:30.861Z,19.15
2023-05-15T17:34:32.934Z,19.80
2023-05-15T17:37:34.913Z,20.30
2023-05-15T17:40:36.803Z,19.97
2023-05-15T17:43:41.017Z,19.77
2023-05-15T17:46:43.307Z,19.52
2023-05-15T17:49:45.578Z,19.55
2023-05-15T17:52:47.648Z,19.56
2023-05-15T17:55:49.556Z,19.73
2023-05-15T17:58:51.481Z,19.96
2023-05-15T18:01:53.369Z,19.92
2023-05-15T18:04:56.297Z,19.36
2023-05-15T18:07:59.672Z,19.68
2023-05-15T18:11:08.541Z,19.90
2023-05-15T18:14:16.190Z,18.90
2023-05-15T18:17:18.187Z,18.70
2023-05-15T18:20:20.106Z,19.03
2023-05-15T18:23:22.087Z,19.56
2023-05-15T18:26:25.818Z,19.83
2023-05-15T18:29:27.814Z,19.84
2023-05-15T18:32:29.797Z,19.94
2023-05-15T18:35:32.095Z,19.58
2023-05-15T18:38:34.003Z,19.46
2023-05-15T18:41:35.851Z,19.69
2023-05-15T18:44:37.757Z,20.22
2023-05-15T18:47:40.090Z,20.38
2023-05-15T18:50:42.165Z,20.40
2023-05-15T18:53:44.111Z,20.23
2023-05-15T18:56:46.221Z,19.64
2023-05-15T18:59:48.205Z,19.82
2023-05-15T19:02:50.362Z,19.79
2023-05-15T19:05:52.569Z,19.48
2023-05-15T19:08:54.500Z,18.98
2023-05-15T19:11:56.422Z,19.13
2023-05-15T19:14:58.809Z,19.14
2023-05-15T19:18:00.942Z,19.21
2023-05-15T19:21:03.038Z,18.98
2023-05-15T19:24:08.099Z,18.85
2023-05-15T19:27:09.997Z,18.95
2023-05-15T19:30:12.154Z,18.91
2023-05-15T19:33:15.704Z,19.18
2023-05-15T19:36:18.731Z,18.52
2023-05-15T19:39:20.693Z,19.08
2023-05-15T19:42:26.258Z,19.00
2023-05-15T19:45:29.600Z,19.06
2023-05-15T19:48:31.638Z,18.83
2023-05-15T19:51:34.475Z,19.12
2023-05-15T19:54:36.354Z,19.05
2023-05-15T19:57:40.181Z,18.72
2023-05-15T20:00:42.078Z,18.34
2023-05-15T20:03:44.457Z,18.52
2023-05-15T20:06:46.463Z,19.07
2023-05-15T20:09:48.424Z,19.25
2023-05-15T20:12:50.415Z,19.12
2023-05-15T20:15:56.944Z,19.47
2023-05-15T20:18:59.978Z,19.57
2023-05-15T20:22:02.036Z,19.57
2023-05-15T20:25:04.025Z,19.10
2023-05-15T20:28:06.186Z,18.72
2023-05-15T20:31:08.083Z,18.74
2023-05-15T20:34:10.126Z,18.85
2023-05-15T20:37:13.355Z,18.74
2023-05-15T20:40:15.906Z,19.09
2023-05-15T20:43:17.823Z,18.83
2023-05-15T20:46:21.624Z,19.15
2023-05-15T20:49:23.660Z,19.44
2023-05-15T20:52:25.579Z,18.92
2023-05-15T20:55:27.633Z,18.28
2023-05-15T20:58:29.572Z,18.84
2023-05-15T21:01:31.588Z,18.35
2023-05-15T21:04:33.728Z,18.08
2023-05-15T21:07:35.973Z,18.51
2023-05-15T21:10:38.032Z,18.89
2023-05-15T21:13:39.969Z,18.87
2023-05-15T21:16:41.981Z,18.23
2023-05-15T21:19:43.917Z,18.19
2023-05-15T21:22:45.916Z,18.56
2023-05-15T21:25:47.798Z,18.26
2023-05-15T21:28:49.796Z,17.84
2023-05-15T21:31:51.748Z,18.28
2023-05-15T21:34:53.723Z,18.16
2023-05-15T21:37:55.771Z,17.55
2023-05-15T21:40:57.923Z,17.32
2023-05-15T21:43:59.756Z,17.97
2023-05-15T21:47:01.738Z,18.48
2023-05-15T21:50:03.980Z,18.43
2023-05-15T21:53:06.014Z,18.50
2023-05-15T21:56:08.542Z,18.37
2023-05-15T21:59:11.432Z,17.92
2023-05-15T22:02:13.537Z,17.71
2023-05-15T22:05:16.139Z,17.55
2023-05-15T22:08:18.470Z,17.82
2023-05-15T22:11:20.787Z,18.61
2023-05-15T22:14:23.026Z,18.12
2023-05-15T22:17:27.160Z,18.83
2023-05-15T22:20:29.255Z,17.95
2023-05-15T22:23:32.294Z,18.14
2023-05-15T22:26:34.606Z,17.61
2023-05-15T22:29:36.459Z,17.65
2023-05-15T22:32:38.570Z,17.57
2023-05-15T22:35:40.509Z,18.57
2023-05-15T22:38:52.798Z,18.80
2023-05-15T22:41:54.731Z,18.93
2023-05-15T22:45:01.611Z,18.33
2023-05-15T22:48:03.870Z,18.38
2023-05-15T22:51:11.582Z,18.04
2023-05-15T22:54:13.583Z,17.53
2023-05-15T22:57:18.538Z,18.17
2023-05-15T23:00:20.508Z,17.29
2023-05-15T23:03:24.352Z,17.01
2023-05-15T23:06:26.471Z,17.10
2023-05-15T23:09:28.405Z,17.36
2023-05-15T23:12:30.922Z,17.37
2023-05-15T23:15:32.957Z,17.26
2023-05-15T23:18:35.273Z,16.74
2023-05-15T23:21:37.967Z,17.17
2023-05-15T23:24:39.926Z,17.30
2023-05-15T23:27:41.942Z,16.87
2023-05-15T23:30:43.946Z,17.89
2023-05-15T23:33:48.084Z,17.77
2023-05-15T23:36:50.353Z,17.26
2023-05-15T23:39:55.258Z,17.23
2023-05-15T23:42:57.157Z,18.19
2023-05-15T23:45:59.073Z,18.10
2023-05-15T23:49:01.111Z,18.20
2023-05-15T23:52:02.976Z,18.06
2023-05-15T23:55:05.229Z,17.02
2023-05-15T23:58:07.226Z,16.91
